Time;durP1;ratioP1;P1;durP2;ratioP2;P2;SDS_P1;SDS_P2;PMS_P1;PMS_P2;Temp;Humidity;BMP_temperature;BMP_pressure;BME280_temperature;BME280_humidity;BME280_pressure;Samples;Min_cycle;Max_cycle;Signal;HPM_P1;HPM_P2
2022/11/21 00:01:15;;;;;;;9.73;8.32;;;;;;;;;;4998042;28;20045;-84
2022/11/21 00:03:43;;;;;;;11.60;10.50;;;;;;;;;;4982541;28;20038;-86
2022/11/21 00:06:09;;;;;;;16.92;13.07;;;;;;;;;;4963696;28;20044;-86
2022/11/21 00:08:35;;;;;;;18.02;11.90;;;;;;;;;;4998735;28;20093;-85
2022/11/21 00:11:01;;;;;;;14.07;7.97;;;;;;;;;;4962790;28;20042;-87
2022/11/21 00:13:27;;;;;;;7.05;3.78;;;;;;;;;;4980557;28;20135;-86
2022/11/21 00:15:53;;;;;;;6.82;2.85;;;;;;;;;;4996603;28;20049;-84
2022/11/21 00:18:21;;;;;;;5.15;3.10;;;;;;;;;;4998205;28;20408;-84
2022/11/21 00:20:49;;;;;;;6.13;2.53;;;;;;;;;;4997654;28;20121;-84
2022/11/21 00:23:15;;;;;;;4.25;2.53;;;;;;;;;;4963205;28;21695;-84
2022/11/21 00:25:40;;;;;;;3.92;2.00;;;;;;;;;;4999499;28;20038;-84
2022/11/21 00:28:09;;;;;;;9.98;2.72;;;;;;;;;;5000107;28;20038;-84
2022/11/21 00:30:37;;;;;;;2.47;1.83;;;;;;;;;;4980948;28;20396;-84
2022/11/21 00:33:03;;;;;;;3.55;2.67;;;;;;;;;;4979183;28;20034;-84
2022/11/21 00:35:29;;;;;;;4.43;2.90;;;;;;;;;;4981042;28;20480;-85
2022/11/21 00:37:57;;;;;;;4.07;2.97;;;;;;;;;;4984354;28;20041;-84
2022/11/21 00:40:25;;;;;;;3.97;3.42;;;;;;;;;;4998079;28;20044;-85
2022/11/21 00:42:54;;;;;;;5.45;3.33;;;;;;;;;;4962361;28;20053;-84
2022/11/21 00:45:19;;;;;;;3.42;2.05;;;;;;;;;;4996096;28;20889;-85
2022/11/21 00:47:47;;;;;;;3.47;2.60;;;;;;;;;;4949521;28;20037;-84
2022/11/21 00:50:13;;;;;;;2.33;2.10;;;;;;;;;;4994089;28;20034;-85
2022/11/21 00:52:41;;;;;;;3.58;2.20;;;;;;;;;;4999641;28;20396;-84
2022/11/21 00:55:07;;;;;;;2.45;1.80;;;;;;;;;;4979780;28;20045;-85
2022/11/21 00:57:33;;;;;;;1.90;1.23;;;;;;;;;;4996505;28;20695;-84
2022/11/21 01:00:01;;;;;;;3.28;2.47;;;;;;;;;;4947746;28;20034;-84
2022/11/21 01:02:27;;;;;;;2.17;1.30;;;;;;;;;;4960634;28;20172;-86
2022/11/21 01:04:55;;;;;;;2.42;1.67;;;;;;;;;;4982342;28;20022;-85
2022/11/21 01:07:21;;;;;;;2.45;1.58;;;;;;;;;;4998737;28;20483;-86
2022/11/21 01:09:47;;;;;;;6.43;2.13;;;;;;;;;;4979694;28;20042;-85
2022/11/21 01:12:15;;;;;;;3.20;1.90;;;;;;;;;;4981043;28;20126;-84
2022/11/21 01:14:43;;;;;;;3.58;1.63;;;;;;;;;;5019487;23;20053;-72
2022/11/21 01:17:09;;;;;;;3.50;2.08;;;;;;;;;;4998317;28;20503;-73
2022/11/21 01:19:35;;;;;;;3.97;1.60;;;;;;;;;;5019447;28;20044;-72
2022/11/21 01:22:03;;;;;;;2.55;2.20;;;;;;;;;;5001986;28;20505;-72
2022/11/21 01:24:31;;;;;;;1.85;1.30;;;;;;;;;;5014519;28;20405;-72
2022/11/21 01:26:59;;;;;;;6.45;2.08;;;;;;;;;;5000378;28;20480;-72
2022/11/21 01:29:30;;;;;;;6.07;2.50;;;;;;;;;;5002094;28;20529;-71
2022/11/21 01:31:55;;;;;;;4.57;1.98;;;;;;;;;;5001753;28;20046;-72
2022/11/21 01:34:21;;;;;;;2.33;1.85;;;;;;;;;;5005980;28;20061;-72
2022/11/21 01:36:49;;;;;;;3.15;1.60;;;;;;;;;;4984562;28;20399;-72
2022/11/21 01:39:18;;;;;;;5.10;2.97;;;;;;;;;;4989138;28;20092;-72
2022/11/21 01:41:46;;;;;;;3.38;2.78;;;;;;;;;;4990138;28;20029;-72
2022/11/21 01:44:15;;;;;;;4.00;1.45;;;;;;;;;;4988899;28;20495;-72
2022/11/21 01:46:40;;;;;;;1.60;1.50;;;;;;;;;;4970263;28;20030;-72
2022/11/21 01:49:13;;;;;;;2.25;1.63;;;;;;;;;;5001927;28;20480;-73
2022/11/21 01:51:45;;;;;;;3.28;1.55;;;;;;;;;;5006603;28;20037;-73
2022/11/21 01:54:37;;;;;;;1.65;1.23;;;;;;;;;;5003315;28;20064;-73
2022/11/21 01:57:09;;;;;;;2.22;1.70;;;;;;;;;;4984446;28;20034;-73
2022/11/21 01:59:38;;;;;;;2.20;1.83;;;;;;;;;;4980302;28;20042;-73
2022/11/21 02:02:07;;;;;;;4.20;2.28;;;;;;;;;;4999821;28;20036;-73
2022/11/21 02:04:38;;;;;;;2.85;2.47;;;;;;;;;;4999757;28;20033;-73
2022/11/21 02:07:05;;;;;;;2.05;1.75;;;;;;;;;;4979953;28;20030;-73
2022/11/21 02:09:36;;;;;;;4.35;2.03;;;;;;;;;;4998869;28;20033;-73
2022/11/21 02:12:20;;;;;;;1.50;1.20;;;;;;;;;;5000464;28;20588;-73
2022/11/21 02:14:46;;;;;;;2.15;1.45;;;;;;;;;;4999599;28;20044;-73
2022/11/21 02:17:11;;;;;;;2.65;1.55;;;;;;;;;;4997667;28;20439;-71
2022/11/21 02:19:37;;;;;;;2.72;1.52;;;;;;;;;;4997966;28;20470;-71
2022/11/21 02:22:11;;;;;;;6.20;1.23;;;;;;;;;;4979663;28;20041;-72
2022/11/21 02:24:39;;;;;;;;;;;;;;;;;;4985192;28;20049;-72
2022/11/21 02:27:05;;;;;;;2.30;1.20;;;;;;;;;;4978248;28;19914;-72
2022/11/21 02:29:33;;;;;;;1.55;0.95;;;;;;;;;;5004239;28;20053;-72
2022/11/21 02:32:01;;;;;;;1.83;1.13;;;;;;;;;;5003761;28;20041;-72
2022/11/21 02:34:27;;;;;;;2.00;1.63;;;;;;;;;;4999043;28;20522;-71
2022/11/21 02:36:53;;;;;;;1.67;1.52;;;;;;;;;;4997744;28;20037;-71
2022/11/21 02:39:25;;;;;;;1.27;1.00;;;;;;;;;;5001577;28;20117;-71
2022/11/21 02:42:01;;;;;;;2.60;2.00;;;;;;;;;;4998646;28;20034;-72
2022/11/21 02:44:32;;;;;;;3.75;1.55;;;;;;;;;;5000444;28;20045;-72
2022/11/21 02:46:58;;;;;;;3.22;1.67;;;;;;;;;;4997988;28;20030;-72
2022/11/21 02:49:30;;;;;;;1.80;1.30;;;;;;;;;;4993821;28;21826;-72
2022/11/21 02:51:56;;;;;;;1.33;1.02;;;;;;;;;;5001508;28;20026;-72
2022/11/21 02:54:22;;;;;;;3.28;1.45;;;;;;;;;;4997603;28;20451;-73
2022/11/21 02:56:47;;;;;;;1.75;1.20;;;;;;;;;;4999124;28;20040;-72
2022/11/21 02:59:16;;;;;;;4.88;1.70;;;;;;;;;;4999617;28;20038;-73
2022/11/21 03:01:41;;;;;;;3.45;2.25;;;;;;;;;;4998349;28;20030;-73
2022/11/21 03:04:07;;;;;;;3.90;1.75;;;;;;;;;;4998037;28;20100;-73
2022/11/21 03:06:33;;;;;;;2.25;1.80;;;;;;;;;;5000249;28;20022;-73
2022/11/21 03:08:59;;;;;;;2.65;1.77;;;;;;;;;;4999859;28;20038;-72
2022/11/21 03:11:27;;;;;;;2.92;1.75;;;;;;;;;;4979716;28;20136;-73
2022/11/21 03:13:53;;;;;;;2.42;2.05;;;;;;;;;;4982583;28;20041;-73
2022/11/21 03:16:19;;;;;;;3.47;1.73;;;;;;;;;;4999361;28;20030;-73
2022/11/21 03:18:47;;;;;;;3.47;2.63;;;;;;;;;;4978940;28;20488;-72
2022/11/21 03:21:13;;;;;;;3.20;1.45;;;;;;;;;;4997567;28;20126;-73
2022/11/21 03:23:41;;;;;;;5.13;1.95;;;;;;;;;;5000279;28;20795;-73
2022/11/21 03:26:09;;;;;;;2.92;1.95;;;;;;;;;;4983339;28;20024;-73
2022/11/21 03:28:39;;;;;;;2.25;1.10;;;;;;;;;;5000786;28;20034;-73
2022/11/21 03:31:05;;;;;;;2.17;1.15;;;;;;;;;;4981470;28;20045;-73
2022/11/21 03:33:31;;;;;;;5.45;1.50;;;;;;;;;;4966774;28;20125;-72
2022/11/21 03:35:56;;;;;;;1.92;0.93;;;;;;;;;;5001891;28;20450;-73
2022/11/21 03:38:22;;;;;;;3.17;1.00;;;;;;;;;;4969995;28;20408;-72
2022/11/21 03:40:51;;;;;;;2.40;1.20;;;;;;;;;;4987020;28;20558;-73
2022/11/21 03:43:17;;;;;;;2.47;0.73;;;;;;;;;;5007544;28;20030;-73
2022/11/21 03:45:45;;;;;;;1.15;0.70;;;;;;;;;;5006855;28;20041;-73
2022/11/21 03:48:11;;;;;;;2.10;1.00;;;;;;;;;;5003324;28;20499;-73
2022/11/21 03:50:39;;;;;;;2.97;1.35;;;;;;;;;;5001147;28;20037;-72
2022/11/21 03:53:08;;;;;;;2.75;1.38;;;;;;;;;;4988495;28;20045;-73
2022/11/21 03:55:36;;;;;;;2.33;1.17;;;;;;;;;;4983863;28;20046;-73
2022/11/21 03:58:04;;;;;;;1.40;0.80;;;;;;;;;;5005381;28;20033;-73
2022/11/21 04:00:32;;;;;;;3.38;0.70;;;;;;;;;;4986435;28;20030;-73
2022/11/21 04:02:58;;;;;;;7.03;0.95;;;;;;;;;;5003932;28;20375;-73
2022/11/21 04:05:24;;;;;;;3.70;1.50;;;;;;;;;;5003725;28;20026;-73
2022/11/21 04:07:52;;;;;;;4.85;1.05;;;;;;;;;;4988291;28;20031;-73
2022/11/21 04:10:21;;;;;;;1.45;0.73;;;;;;;;;;4983205;28;20549;-73
2022/11/21 04:12:52;;;;;;;3.47;1.35;;;;;;;;;;5003917;28;20036;-73
2022/11/21 04:15:17;;;;;;;1.67;0.98;;;;;;;;;;5007921;28;20038;-73
2022/11/21 04:17:50;;;;;;;1.00;0.63;;;;;;;;;;5004484;28;20041;-73
2022/11/21 04:20:19;;;;;;;2.78;1.08;;;;;;;;;;4986276;28;20040;-73
2022/11/21 04:22:49;;;;;;;0.73;0.70;;;;;;;;;;4987280;28;20038;-72
2022/11/21 04:25:15;;;;;;;4.55;1.20;;;;;;;;;;4990077;28;20484;-72
2022/11/21 04:27:43;;;;;;;2.80;1.02;;;;;;;;;;5000926;28;20030;-72
2022/11/21 04:30:09;;;;;;;1.17;0.85;;;;;;;;;;4986912;28;20038;-72
2022/11/21 04:32:35;;;;;;;5.57;2.25;;;;;;;;;;5004564;28;20028;-72
2022/11/21 04:35:03;;;;;;;2.55;1.30;;;;;;;;;;5006118;28;20029;-73
2022/11/21 04:37:29;;;;;;;2.17;1.35;;;;;;;;;;4999652;28;20038;-72
2022/11/21 04:39:55;;;;;;;3.33;1.45;;;;;;;;;;4999220;28;20084;-72
2022/11/21 04:42:21;;;;;;;2.50;1.00;;;;;;;;;;4982718;28;20041;-72
2022/11/21 04:44:49;;;;;;;2.78;0.63;;;;;;;;;;4999096;28;20026;-72
2022/11/21 04:47:15;;;;;;;1.98;1.55;;;;;;;;;;5000718;28;20084;-72
2022/11/21 04:49:40;;;;;;;2.05;1.38;;;;;;;;;;5002608;28;20052;-72
2022/11/21 04:52:06;;;;;;;2.25;1.40;;;;;;;;;;5004289;28;20034;-71
2022/11/21 04:54:32;;;;;;;1.20;0.60;;;;;;;;;;5006372;28;20042;-72
2022/11/21 04:57:01;;;;;;;1.27;1.00;;;;;;;;;;5000608;28;20395;-72
2022/11/21 04:59:26;;;;;;;1.35;1.13;;;;;;;;;;5003990;28;20041;-72
2022/11/21 05:01:52;;;;;;;2.65;0.88;;;;;;;;;;5003531;28;20045;-72
2022/11/21 05:04:20;;;;;;;1.95;0.88;;;;;;;;;;5002584;28;20126;-72
2022/11/21 05:06:46;;;;;;;1.42;0.85;;;;;;;;;;4985029;28;20045;-72
2022/11/21 05:09:15;;;;;;;3.00;0.88;;;;;;;;;;5002934;28;20026;-72
2022/11/21 05:14:27;;;;;;;0.80;0.60;;;;;;;;;;4968928;28;20037;-72
2022/11/21 05:16:56;;;;;;;1.38;0.95;;;;;;;;;;5001468;28;20038;-72
2022/11/21 05:19:21;;;;;;;0.77;0.77;;;;;;;;;;5000986;28;20042;-73
2022/11/21 05:21:47;;;;;;;3.92;1.40;;;;;;;;;;4986455;28;20376;-73
2022/11/21 05:24:18;;;;;;;2.40;0.65;;;;;;;;;;5004371;28;20045;-73
2022/11/21 05:26:43;;;;;;;2.03;1.13;;;;;;;;;;5004422;28;20029;-73
2022/11/21 05:29:16;;;;;;;1.50;1.02;;;;;;;;;;4999195;28;20041;-72
2022/11/21 05:31:44;;;;;;;1.52;1.10;;;;;;;;;;5001218;28;20026;-72
2022/11/21 05:34:10;;;;;;;2.35;1.17;;;;;;;;;;5004751;28;20034;-72
2022/11/21 05:36:36;;;;;;;1.33;0.70;;;;;;;;;;5001988;28;20125;-72
2022/11/21 05:39:03;;;;;;;1.60;1.50;;;;;;;;;;4999161;28;20025;-72
2022/11/21 05:41:31;;;;;;;1.83;1.15;;;;;;;;;;4966681;28;20045;-72
2022/11/21 05:43:57;;;;;;;1.65;1.05;;;;;;;;;;5001043;28;20531;-72
2022/11/21 05:46:25;;;;;;;5.30;2.35;;;;;;;;;;4991234;28;20515;-72
2022/11/21 05:48:54;;;;;;;2.88;2.58;;;;;;;;;;4993101;28;21493;-72
2022/11/21 05:51:20;;;;;;;1.45;1.13;;;;;;;;;;4979438;28;20044;-72
2022/11/21 05:53:48;;;;;;;1.67;1.40;;;;;;;;;;4993527;28;20026;-71
2022/11/21 05:56:15;;;;;;;4.22;2.20;;;;;;;;;;5004121;28;20075;-72
2022/11/21 05:58:44;;;;;;;2.88;2.03;;;;;;;;;;4998988;28;20038;-72
2022/11/21 06:01:10;;;;;;;2.72;2.35;;;;;;;;;;4987889;28;20403;-72
2022/11/21 06:03:37;;;;;;;2.45;1.85;;;;;;;;;;4998734;28;20060;-72
2022/11/21 06:06:03;;;;;;;4.88;2.13;;;;;;;;;;4999891;28;20025;-72
2022/11/21 06:08:31;;;;;;;1.75;1.65;;;;;;;;;;5000066;28;20498;-72
2022/11/21 06:10:59;;;;;;;4.15;3.25;;;;;;;;;;4984289;28;20038;-72
2022/11/21 06:13:25;;;;;;;6.97;4.53;;;;;;;;;;5003066;28;20491;-72
2022/11/21 06:15:53;;;;;;;7.43;2.80;;;;;;;;;;4996969;28;20045;-72
2022/11/21 06:18:21;;;;;;;2.60;2.40;;;;;;;;;;4988027;28;20037;-72
2022/11/21 06:20:49;;;;;;;4.75;2.97;;;;;;;;;;4998377;28;21054;-72
2022/11/21 06:23:17;;;;;;;3.10;2.25;;;;;;;;;;4966327;28;20040;-73
2022/11/21 06:25:54;;;;;;;2.65;1.90;;;;;;;;;;4984472;28;20038;-73
2022/11/21 06:28:20;;;;;;;4.60;2.28;;;;;;;;;;4984315;28;20030;-72
2022/11/21 06:30:50;;;;;;;3.42;2.13;;;;;;;;;;4983861;28;20044;-72
2022/11/21 06:33:16;;;;;;;4.47;1.92;;;;;;;;;;4981141;28;21082;-73
2022/11/21 06:35:45;;;;;;;3.03;1.50;;;;;;;;;;5002521;28;20408;-72
2022/11/21 06:38:17;;;;;;;3.10;2.08;;;;;;;;;;4984563;28;20037;-73
2022/11/21 06:40:46;;;;;;;3.03;2.35;;;;;;;;;;4990518;28;20029;-72
2022/11/21 06:43:14;;;;;;;2.72;1.42;;;;;;;;;;4995559;28;20037;-73
2022/11/21 06:45:42;;;;;;;3.30;1.98;;;;;;;;;;4992814;28;20030;-72
2022/11/21 06:48:11;;;;;;;2.03;1.75;;;;;;;;;;5001773;28;20037;-72
2022/11/21 06:50:39;;;;;;;2.83;1.38;;;;;;;;;;4992725;28;20045;-72
2022/11/21 06:53:07;;;;;;;2.70;1.35;;;;;;;;;;4995745;28;20035;-72
2022/11/21 06:55:36;;;;;;;2.35;1.27;;;;;;;;;;5004474;28;20044;-72
2022/11/21 06:58:04;;;;;;;2.72;1.80;;;;;;;;;;5011915;28;20034;-73
2022/11/21 07:00:30;;;;;;;6.57;1.88;;;;;;;;;;4998359;28;20034;-72
2022/11/21 07:03:01;;;;;;;2.47;1.40;;;;;;;;;;5006682;28;20022;-72
2022/11/21 07:05:28;;;;;;;2.08;1.80;;;;;;;;;;4999334;28;20037;-72
2022/11/21 07:08:00;;;;;;;6.57;2.05;;;;;;;;;;4990496;28;20026;-72
2022/11/21 07:10:26;;;;;;;3.00;2.22;;;;;;;;;;4994433;28;20042;-72
2022/11/21 07:15:43;;;;;;;6.45;1.92;;;;;;;;;;4995738;23;20047;-83
2022/11/21 07:18:09;;;;;;;3.08;1.83;;;;;;;;;;4963375;28;20034;-83
2022/11/21 07:20:35;;;;;;;9.13;2.90;;;;;;;;;;4951615;28;20107;-83
2022/11/21 07:23:01;;;;;;;6.47;2.40;;;;;;;;;;4946452;28;20058;-84
2022/11/21 07:25:26;;;;;;;5.13;1.80;;;;;;;;;;4968520;28;20032;-83
2022/11/21 07:27:52;;;;;;;2.45;2.00;;;;;;;;;;4973105;28;20469;-83
2022/11/21 07:30:20;;;;;;;5.78;3.08;;;;;;;;;;4958408;28;20026;-83
2022/11/21 07:32:59;;;;;;;5.43;2.72;;;;;;;;;;4961771;28;20038;-82
2022/11/21 07:35:30;;;;;;;3.55;2.15;;;;;;;;;;4972076;28;20042;-82
2022/11/21 07:37:56;;;;;;;4.18;1.80;;;;;;;;;;4969958;28;20030;-82
2022/11/21 07:40:22;;;;;;;3.35;2.85;;;;;;;;;;4955466;28;20027;-82
2022/11/21 07:42:50;;;;;;;4.18;2.08;;;;;;;;;;4943177;28;20042;-82
2022/11/21 07:45:19;;;;;;;2.95;2.17;;;;;;;;;;4967453;28;20031;-82
2022/11/21 07:47:44;;;;;;;4.75;2.28;;;;;;;;;;4962765;28;20031;-82
2022/11/21 07:50:11;;;;;;;3.75;2.53;;;;;;;;;;4947668;28;20125;-82
2022/11/21 07:52:37;;;;;;;5.25;2.88;;;;;;;;;;4942156;28;20030;-82
2022/11/21 07:55:04;;;;;;;6.45;2.67;;;;;;;;;;4978676;28;20097;-82
2022/11/21 07:57:31;;;;;;;8.10;2.75;;;;;;;;;;4971832;28;20034;-82
2022/11/21 07:59:59;;;;;;;3.80;2.00;;;;;;;;;;4958806;28;20049;-82
2022/11/21 08:02:26;;;;;;;8.43;3.22;;;;;;;;;;4967032;28;20034;-83
2022/11/21 08:04:52;;;;;;;7.40;2.42;;;;;;;;;;4960979;28;20484;-81
2022/11/21 08:07:18;;;;;;;4.53;2.30;;;;;;;;;;4980560;28;20041;-83
2022/11/21 08:09:44;;;;;;;4.88;2.67;;;;;;;;;;4960347;28;20500;-82
2022/11/21 08:12:13;;;;;;;7.43;2.70;;;;;;;;;;4963568;28;20046;-82
2022/11/21 08:14:39;;;;;;;2.53;1.58;;;;;;;;;;4944140;28;20042;-81
2022/11/21 08:17:07;;;;;;;2.45;2.20;;;;;;;;;;4966171;28;20026;-82
2022/11/21 08:19:33;;;;;;;6.00;2.53;;;;;;;;;;4968181;28;20121;-82
2022/11/21 08:21:59;;;;;;;8.45;2.50;;;;;;;;;;4979290;28;20054;-81
2022/11/21 08:24:30;;;;;;;3.35;1.63;;;;;;;;;;4969504;28;20038;-81
2022/11/21 08:27:00;;;;;;;5.22;2.03;;;;;;;;;;4973332;28;20055;-82
2022/11/21 08:29:28;;;;;;;4.53;2.40;;;;;;;;;;4967179;28;20499;-83
2022/11/21 08:31:54;;;;;;;6.25;2.60;;;;;;;;;;4977947;28;20030;-81
2022/11/21 08:34:24;;;;;;;6.03;2.08;;;;;;;;;;4977154;28;20030;-81
2022/11/21 08:36:52;;;;;;;6.72;2.92;;;;;;;;;;4965657;28;20033;-84
2022/11/21 08:39:18;;;;;;;2.42;1.52;;;;;;;;;;4967279;28;20042;-82
2022/11/21 08:42:01;;;;;;;3.85;2.20;;;;;;;;;;4973538;28;20088;-81
2022/11/21 08:44:33;;;;;;;8.27;1.98;;;;;;;;;;4981957;28;20505;-84
2022/11/21 08:46:59;;;;;;;5.03;2.50;;;;;;;;;;4974419;28;20029;-83
2022/11/21 08:49:25;;;;;;;5.82;2.03;;;;;;;;;;4969113;28;20031;-84
2022/11/21 08:51:54;;;;;;;2.58;1.77;;;;;;;;;;4975682;28;20062;-84
2022/11/21 08:54:21;;;;;;;3.03;2.35;;;;;;;;;;4971812;28;20038;-84
2022/11/21 08:56:47;;;;;;;6.22;2.47;;;;;;;;;;4953880;28;20045;-84
2022/11/21 08:59:16;;;;;;;7.00;2.10;;;;;;;;;;4974834;28;20045;-84
2022/11/21 09:01:42;;;;;;;3.78;2.38;;;;;;;;;;4982538;28;20042;-84
2022/11/21 09:04:10;;;;;;;2.95;1.92;;;;;;;;;;4973360;28;20023;-84
2022/11/21 09:06:36;;;;;;;3.40;2.17;;;;;;;;;;4970261;28;20031;-84
2022/11/21 09:09:07;;;;;;;2.20;1.52;;;;;;;;;;4956370;28;20029;-84
2022/11/21 09:11:34;;;;;;;5.30;3.00;;;;;;;;;;4944071;28;20034;-84
2022/11/21 09:19:46;;;;;;;6.97;3.10;;;;;;;;;;4970911;28;20508;-84
2022/11/21 09:22:19;;;;;;;6.30;3.10;;;;;;;;;;4977151;28;20042;-84
2022/11/21 09:24:47;;;;;;;6.28;2.17;;;;;;;;;;4972053;28;20027;-84
2022/11/21 09:27:13;;;;;;;3.22;2.10;;;;;;;;;;4951500;28;20034;-82
2022/11/21 09:29:39;;;;;;;2.15;1.90;;;;;;;;;;4964241;28;20038;-84
2022/11/21 09:32:07;;;;;;;4.50;1.55;;;;;;;;;;4977825;28;20393;-84
2022/11/21 09:34:35;;;;;;;4.25;2.15;;;;;;;;;;4971512;28;20034;-84
2022/11/21 09:37:01;;;;;;;3.78;2.25;;;;;;;;;;4965593;28;20392;-84
2022/11/21 09:39:34;;;;;;;3.40;2.30;;;;;;;;;;4981539;28;20370;-84
2022/11/21 09:42:09;;;;;;;7.57;2.20;;;;;;;;;;4955993;28;20043;-84
2022/11/21 09:44:53;;;;;;;8.70;2.70;;;;;;;;;;4962958;28;20026;-84
2022/11/21 09:47:29;;;;;;;2.30;0.90;;;;;;;;;;4981290;28;20037;-83
2022/11/21 09:50:01;;;;;;;3.15;1.80;;;;;;;;;;4969280;28;20046;-83
2022/11/21 09:52:35;;;;;;;3.75;1.40;;;;;;;;;;4971324;28;20062;-82
2022/11/21 09:55:13;;;;;;;2.83;1.70;;;;;;;;;;4979634;28;20515;-83
2022/11/21 09:57:38;;;;;;;2.00;1.65;;;;;;;;;;4961787;28;20038;-85
2022/11/21 10:00:27;;;;;;;4.97;1.90;;;;;;;;;;4982907;28;20030;-84
2022/11/21 10:02:53;;;;;;;3.92;1.50;;;;;;;;;;4984002;28;20057;-84
2022/11/21 10:05:28;;;;;;;3.10;1.27;;;;;;;;;;4971133;28;20030;-85
2022/11/21 10:08:02;;;;;;;3.25;2.38;;;;;;;;;;4966540;28;20046;-85
2022/11/21 10:10:46;;;;;;;3.15;1.92;;;;;;;;;;4962716;28;20043;-85
2022/11/21 10:13:29;;;;;;;3.50;1.35;;;;;;;;;;4965490;28;20053;-84
2022/11/21 10:16:14;;;;;;;24.57;3.13;;;;;;;;;;4965657;28;20054;-85
2022/11/21 10:18:45;;;;;;;3.13;2.13;;;;;;;;;;4969714;28;20034;-85
2022/11/21 10:21:17;;;;;;;4.13;2.33;;;;;;;;;;4971603;28;20046;-85
2022/11/21 10:24:00;;;;;;;3.85;1.70;;;;;;;;;;4977064;28;20043;-86
2022/11/21 10:26:45;;;;;;;5.32;1.98;;;;;;;;;;5344097;23;20041;-85
2022/11/21 10:29:47;;;;;;;10.03;2.33;;;;;;;;;;4989711;28;20037;-85
2022/11/21 10:32:23;;;;;;;6.07;2.15;;;;;;;;;;5021664;28;20037;-84
2022/11/21 10:34:55;;;;;;;9.00;2.63;;;;;;;;;;5007504;28;20026;-85
2022/11/21 10:37:30;;;;;;;6.47;2.50;;;;;;;;;;4992161;28;20507;-84
2022/11/21 10:40:04;;;;;;;1.98;1.83;;;;;;;;;;4992853;28;20053;-84
2022/11/21 10:42:35;;;;;;;10.15;2.13;;;;;;;;;;4997589;28;20037;-84
2022/11/21 10:45:17;;;;;;;5.32;1.63;;;;;;;;;;5016545;28;20506;-85
2022/11/21 10:47:51;;;;;;;6.57;2.10;;;;;;;;;;5020724;28;20025;-85
2022/11/21 10:50:40;;;;;;;4.28;1.80;;;;;;;;;;5006110;28;20476;-85
2022/11/21 10:56:04;;;;;;;5.68;1.77;;;;;;;;;;5016759;28;20029;-85
2022/11/21 10:58:49;;;;;;;2.65;1.70;;;;;;;;;;5013831;28;20053;-85
2022/11/21 11:01:21;;;;;;;6.13;1.95;;;;;;;;;;5011498;28;20030;-85
2022/11/21 11:04:04;;;;;;;3.72;1.65;;;;;;;;;;5016643;28;20033;-85
2022/11/21 11:06:35;;;;;;;6.05;1.80;;;;;;;;;;5018283;28;20042;-85
2022/11/21 11:09:01;;;;;;;1.65;1.30;;;;;;;;;;5008359;28;20026;-85
2022/11/21 11:11:30;;;;;;;1.77;1.17;;;;;;;;;;5015980;28;20034;-86
2022/11/21 11:14:00;;;;;;;6.80;2.50;;;;;;;;;;5009128;28;20033;-86
2022/11/21 11:16:28;;;;;;;8.82;1.83;;;;;;;;;;5006171;28;20420;-86
2022/11/21 11:18:58;;;;;;;5.10;2.35;;;;;;;;;;4997625;28;20487;-86
2022/11/21 11:21:42;;;;;;;2.05;1.40;;;;;;;;;;5003558;28;20396;-86
2022/11/21 11:24:08;;;;;;;6.03;2.20;;;;;;;;;;4986997;28;20030;-85
2022/11/21 11:26:54;;;;;;;3.65;2.13;;;;;;;;;;5017834;28;20173;-85
2022/11/21 11:29:21;;;;;;;3.55;2.40;;;;;;;;;;5003449;28;20500;-85
2022/11/21 11:32:00;;;;;;;6.43;1.65;;;;;;;;;;4994040;28;20030;-85
2022/11/21 11:34:38;;;;;;;2.55;1.83;;;;;;;;;;4982598;28;20399;-86
2022/11/21 11:37:22;;;;;;;7.05;2.30;;;;;;;;;;5003733;28;20512;-85
2022/11/21 11:39:50;;;;;;;3.75;1.75;;;;;;;;;;5018418;28;20356;-85
2022/11/21 11:48:34;;;;;;;8.32;2.28;;;;;;;;;;4979998;28;20151;-86
2022/11/21 11:51:05;;;;;;;12.38;3.60;;;;;;;;;;5007352;28;20032;-85
2022/11/21 11:53:33;;;;;;;5.07;2.85;;;;;;;;;;5011829;28;20052;-87
2022/11/21 11:56:01;;;;;;;3.30;1.88;;;;;;;;;;4991439;28;20034;-87
2022/11/21 11:58:41;;;;;;;5.43;2.38;;;;;;;;;;5017604;28;20034;-86
2022/11/21 12:01:13;;;;;;;7.07;3.33;;;;;;;;;;4991102;28;20106;-86
2022/11/21 12:03:47;;;;;;;1.83;1.63;;;;;;;;;;5019033;28;20033;-86
2022/11/21 12:06:17;;;;;;;6.47;2.10;;;;;;;;;;5016283;28;20036;-87
2022/11/21 12:08:58;;;;;;;6.50;1.50;;;;;;;;;;5007152;28;20395;-86
2022/11/21 12:17:17;;;;;;;15.73;2.65;;;;;;;;;;5403749;22;20042;-81
2022/11/21 12:19:46;;;;;;;11.05;3.50;;;;;;;;;;5012288;28;20029;-85
2022/11/21 12:22:21;;;;;;;8.43;2.80;;;;;;;;;;5002496;28;20049;-86
2022/11/21 12:24:55;;;;;;;3.47;1.67;;;;;;;;;;4993631;28;20057;-85
2022/11/21 12:27:44;;;;;;;5.57;2.15;;;;;;;;;;4994775;28;20030;-85
2022/11/21 12:30:19;;;;;;;2.80;2.55;;;;;;;;;;5020372;28;20026;-85
2022/11/21 12:33:05;;;;;;;3.05;1.60;;;;;;;;;;4984818;28;20488;-85
2022/11/21 12:35:31;;;;;;;8.02;3.78;;;;;;;;;;5015707;28;20489;-85
2022/11/21 12:38:06;;;;;;;2.75;1.55;;;;;;;;;;5007640;28;20048;-85
2022/11/21 12:40:35;;;;;;;6.97;2.42;;;;;;;;;;4957670;28;20037;-85
2022/11/21 12:43:06;;;;;;;8.77;2.35;;;;;;;;;;4999136;28;20637;-85
2022/11/21 12:45:45;;;;;;;4.30;1.92;;;;;;;;;;5007774;28;20030;-85
2022/11/21 12:57:06;;;;;;;5.55;1.92;;;;;;;;;;5018297;28;20049;-83
2022/11/21 12:59:45;;;;;;;3.63;1.75;;;;;;;;;;5009067;28;20025;-84
2022/11/21 13:02:10;;;;;;;12.55;2.63;;;;;;;;;;5012435;28;20385;-84
2022/11/21 13:04:41;;;;;;;4.47;2.28;;;;;;;;;;5006177;28;20036;-84
2022/11/21 13:07:07;;;;;;;5.13;2.67;;;;;;;;;;5006055;28;20037;-84
2022/11/21 13:09:37;;;;;;;4.45;3.35;;;;;;;;;;5010967;28;20120;-84
2022/11/21 13:12:03;;;;;;;4.10;2.38;;;;;;;;;;5011203;28;20041;-83
2022/11/21 13:14:41;;;;;;;4.70;2.65;;;;;;;;;;4993512;28;20065;-82
2022/11/21 13:17:09;;;;;;;3.53;1.58;;;;;;;;;;4934011;28;20138;-76
2022/11/21 13:19:35;;;;;;;5.35;2.13;;;;;;;;;;4969769;28;20052;-75
2022/11/21 13:22:03;;;;;;;7.32;2.17;;;;;;;;;;4975603;28;20042;-76
2022/11/21 13:24:47;;;;;;;9.35;2.40;;;;;;;;;;4962989;28;20042;-76
2022/11/21 13:27:31;;;;;;;10.60;1.90;;;;;;;;;;4938833;28;20026;-76
2022/11/21 13:30:06;;;;;;;7.40;2.50;;;;;;;;;;4934077;29;20035;-76
2022/11/21 13:32:38;;;;;;;2.72;1.88;;;;;;;;;;4933556;29;20047;-76
2022/11/21 13:35:18;;;;;;;9.68;1.70;;;;;;;;;;4956423;28;20034;-76
2022/11/21 13:37:50;;;;;;;4.78;2.28;;;;;;;;;;4954592;28;20485;-76
2022/11/21 13:40:25;;;;;;;5.95;2.67;;;;;;;;;;4957243;28;20039;-76
2022/11/21 13:43:10;;;;;;;5.32;1.88;;;;;;;;;;4945807;28;20050;-76
2022/11/21 13:45:42;;;;;;;3.33;1.30;;;;;;;;;;4943353;28;20081;-76
2022/11/21 13:48:44;;;;;;;5.55;1.88;;;;;;;;;;4947456;28;20019;-76
2022/11/21 13:51:12;;;;;;;3.90;2.40;;;;;;;;;;4853955;29;20542;-76
2022/11/21 13:53:49;;;;;;;13.27;2.28;;;;;;;;;;4926899;28;20054;-76
2022/11/21 13:56:38;;;;;;;14.57;4.53;;;;;;;;;;4933311;28;20032;-76
2022/11/21 13:59:09;;;;;;;6.20;1.80;;;;;;;;;;4917004;28;20409;-76
2022/11/21 14:01:51;;;;;;;6.15;2.35;;;;;;;;;;4958814;28;20054;-76
2022/11/21 14:04:30;;;;;;;5.53;1.98;;;;;;;;;;4939843;29;20027;-76
2022/11/21 14:07:15;;;;;;;3.55;2.10;;;;;;;;;;4952446;28;20034;-75
2022/11/21 14:09:48;;;;;;;11.63;3.95;;;;;;;;;;4960153;28;20042;-75
2022/11/21 14:12:29;;;;;;;2.75;1.83;;;;;;;;;;4950725;29;20031;-75
2022/11/21 14:15:01;;;;;;;4.85;2.13;;;;;;;;;;4951637;28;20047;-75
2022/11/21 14:17:45;;;;;;;6.32;2.22;;;;;;;;;;4952807;28;20038;-75
2022/11/21 14:20:30;;;;;;;3.70;1.90;;;;;;;;;;4950869;28;20035;-75
2022/11/21 14:23:15;;;;;;;3.95;3.55;;;;;;;;;;4943223;28;20042;-75
2022/11/21 14:25:45;;;;;;;6.38;2.15;;;;;;;;;;4929798;28;20381;-76
2022/11/21 14:28:14;;;;;;;4.03;1.85;;;;;;;;;;4938344;29;20040;-76
2022/11/21 14:30:43;;;;;;;7.88;2.33;;;;;;;;;;4965058;28;20034;-75
2022/11/21 14:33:19;;;;;;;5.85;3.28;;;;;;;;;;4950705;28;20042;-76
2022/11/21 14:35:50;;;;;;;7.93;4.15;;;;;;;;;;4947277;28;20034;-75
2022/11/21 14:38:19;;;;;;;9.70;4.03;;;;;;;;;;4945749;28;20062;-75
2022/11/21 14:40:47;;;;;;;3.70;3.17;;;;;;;;;;4937767;29;20042;-76
2022/11/21 14:43:30;;;;;;;5.95;2.55;;;;;;;;;;4954127;28;20505;-76
2022/11/21 14:45:56;;;;;;;6.60;3.97;;;;;;;;;;4947274;28;20023;-75
2022/11/21 14:48:29;;;;;;;7.28;4.85;;;;;;;;;;4966407;28;20027;-75
2022/11/21 14:50:58;;;;;;;9.15;4.28;;;;;;;;;;4952455;29;20473;-75
2022/11/21 14:53:25;;;;;;;9.90;3.42;;;;;;;;;;4924867;29;20043;-75
2022/11/21 14:55:51;;;;;;;6.07;3.25;;;;;;;;;;4948621;28;20031;-75
2022/11/21 14:58:17;;;;;;;12.38;6.45;;;;;;;;;;4949542;28;20050;-75
2022/11/21 15:01:02;;;;;;;14.82;5.85;;;;;;;;;;4966001;28;20132;-75
2022/11/21 15:03:30;;;;;;;6.45;3.17;;;;;;;;;;4954170;28;20425;-76
2022/11/21 15:06:00;;;;;;;12.40;3.80;;;;;;;;;;4948843;28;20053;-75
2022/11/21 15:08:26;;;;;;;5.15;1.75;;;;;;;;;;4950769;28;20039;-75
2022/11/21 15:10:59;;;;;;;6.95;3.17;;;;;;;;;;4954422;28;20036;-75
2022/11/21 15:13:33;;;;;;;4.68;1.75;;;;;;;;;;4935884;29;20591;-75
2022/11/21 15:15:59;;;;;;;6.82;2.53;;;;;;;;;;4949247;28;20043;-75
2022/11/21 15:18:27;;;;;;;9.55;2.28;;;;;;;;;;4966348;28;20507;-76
2022/11/21 15:20:54;;;;;;;9.73;1.92;;;;;;;;;;4939796;29;20503;-76
2022/11/21 15:23:27;;;;;;;4.38;2.10;;;;;;;;;;4953354;28;20449;-75
2022/11/21 15:25:58;;;;;;;5.55;2.90;;;;;;;;;;4922394;28;20031;-76
2022/11/21 15:28:27;;;;;;;6.10;1.98;;;;;;;;;;4957209;28;20057;-76
2022/11/21 15:31:17;;;;;;;5.40;1.98;;;;;;;;;;4960904;28;20047;-75
2022/11/21 15:33:52;;;;;;;7.50;1.63;;;;;;;;;;4950050;28;20039;-76
2022/11/21 15:36:18;;;;;;;16.80;3.03;;;;;;;;;;4942172;28;20042;-76